EWG5EZ LDSP-EDDB
Flight info
| Callsign | EWG5EZ |
|---|---|
| Flight time | 1h 28m |
| Altitude | 34000 |
| Route | SIRMI1W SIRMI DCT RUDIK DCT OBUTI DCT INSAX DCT LOKVU DCT ODLIV DCT LEGAZ DCT BEFRE T204 NUKRO |
| Aircraft | A320/M-SDE3FGHIRWY/LB1 |
Departure
| Time | 2026-05-07 12:00 |
|---|---|
| Airport | Split Saint Jerome Airport (LDSP) |
Arrival
| Time | 2026-05-07 13:28 |
|---|---|
| Airport | Berlin Brandenburg Airport (EDDB) |
| Time | Latitude | Longitude | Altitude | Speed | Heading |
|---|---|---|---|---|---|
| 2026-05-07 11:06 | 43.53501 | 16.29651 | 68 ft | 0 kts | 174° |
| 2026-05-07 11:54 | 43.53499 | 16.29651 | 67 ft | 1 kts | 173° |
| 2026-05-07 11:54 | 43.53497 | 16.29653 | 67 ft | 0 kts | 161° |
| 2026-05-07 11:54 | 43.53497 | 16.29655 | 67 ft | 1 kts | 146° |
| 2026-05-07 11:54 | 43.53502 | 16.29678 | 58 ft | 2 kts | 52° |
| 2026-05-07 11:55 | 43.53505 | 16.29680 | 61 ft | 0 kts | 40° |
| 2026-05-07 11:55 | 43.53513 | 16.29683 | 64 ft | 2 kts | 13° |
| 2026-05-07 11:55 | 43.53534 | 16.29678 | 67 ft | 4 kts | 342° |
| 2026-05-07 11:55 | 43.53568 | 16.29648 | 65 ft | 8 kts | 321° |
| 2026-05-07 11:56 | 43.53602 | 16.29611 | 66 ft | 7 kts | 321° |
| 2026-05-07 11:56 | 43.53646 | 16.29570 | 63 ft | 8 kts | 349° |
| 2026-05-07 11:56 | 43.53696 | 16.29563 | 68 ft | 6 kts | 311° |
| 2026-05-07 11:56 | 43.53696 | 16.29482 | 82 ft | 13 kts | 258° |
| 2026-05-07 11:57 | 43.53643 | 16.29341 | 83 ft | 15 kts | 232° |
| 2026-05-07 11:57 | 43.53579 | 16.29227 | 79 ft | 20 kts | 232° |
| 2026-05-07 11:57 | 43.53502 | 16.29087 | 84 ft | 15 kts | 233° |
| 2026-05-07 11:57 | 43.53428 | 16.28954 | 83 ft | 21 kts | 232° |
| 2026-05-07 11:58 | 43.53328 | 16.28775 | 83 ft | 26 kts | 232° |
| 2026-05-07 11:58 | 43.53248 | 16.28634 | 70 ft | 10 kts | 218° |
| 2026-05-07 11:58 | 43.53206 | 16.28609 | 70 ft | 3 kts | 236° |
| 2026-05-07 11:58 | 43.53214 | 16.28587 | 76 ft | 3 kts | 322° |
| 2026-05-07 11:59 | 43.53230 | 16.28596 | 75 ft | 2 kts | 46° |
| 2026-05-07 11:59 | 43.53232 | 16.28601 | 73 ft | 0 kts | 51° |
| 2026-05-07 11:59 | 43.53294 | 16.28712 | 85 ft | 45 kts | 53° |
| 2026-05-07 12:00 | 43.53626 | 16.29310 | 83 ft | 108 kts | 52° |
| 2026-05-07 12:00 | 43.54180 | 16.30314 | 174 ft | 147 kts | 56° |
| 2026-05-07 12:00 | 43.54784 | 16.31405 | 1016 ft | 142 kts | 57° |
| 2026-05-07 12:00 | 43.55018 | 16.32739 | 1480 ft | 154 kts | 108° |
| 2026-05-07 12:01 | 43.54368 | 16.33914 | 1922 ft | 162 kts | 146° |
| 2026-05-07 12:01 | 43.53439 | 16.34781 | 2522 ft | 164 kts | 147° |
| 2026-05-07 12:01 | 43.52470 | 16.35699 | 3074 ft | 173 kts | 147° |
| 2026-05-07 12:01 | 43.51476 | 16.36638 | 3665 ft | 175 kts | 147° |
| 2026-05-07 12:02 | 43.50462 | 16.37600 | 4191 ft | 179 kts | 148° |
| 2026-05-07 12:02 | 43.49422 | 16.38568 | 4499 ft | 181 kts | 148° |
| 2026-05-07 12:02 | 43.48381 | 16.39535 | 4813 ft | 183 kts | 149° |
| 2026-05-07 12:02 | 43.47308 | 16.40522 | 5115 ft | 184 kts | 151° |
| 2026-05-07 12:03 | 43.46104 | 16.40960 | 5427 ft | 182 kts | 188° |
| 2026-05-07 12:03 | 43.44978 | 16.40188 | 5814 ft | 189 kts | 226° |
| 2026-05-07 12:03 | 43.44220 | 16.38683 | 6213 ft | 193 kts | 233° |
| 2026-05-07 12:03 | 43.43414 | 16.37196 | 6587 ft | 195 kts | 230° |
| 2026-05-07 12:04 | 43.42762 | 16.35563 | 6942 ft | 199 kts | 256° |
| 2026-05-07 12:04 | 43.42872 | 16.33662 | 7323 ft | 206 kts | 291° |
| 2026-05-07 12:04 | 43.43837 | 16.32128 | 7677 ft | 228 kts | 329° |
| 2026-05-07 12:04 | 43.45437 | 16.31490 | 8206 ft | 246 kts | 347° |
| 2026-05-07 12:05 | 43.47181 | 16.31058 | 9117 ft | 248 kts | 347° |
| 2026-05-07 12:05 | 43.48832 | 16.30656 | 9970 ft | 250 kts | 347° |
| 2026-05-07 12:05 | 43.50585 | 16.30437 | 10613 ft | 262 kts | 356° |
| 2026-05-07 12:05 | 43.52491 | 16.30430 | 10935 ft | 286 kts | 356° |
| 2026-05-07 12:06 | 43.54565 | 16.30428 | 11270 ft | 310 kts | 357° |
| 2026-05-07 12:06 | 43.56812 | 16.30430 | 11560 ft | 334 kts | 357° |
| 2026-05-07 12:06 | 43.59205 | 16.30432 | 11803 ft | 354 kts | 357° |
| 2026-05-07 12:06 | 43.61699 | 16.30436 | 12362 ft | 362 kts | 357° |
| 2026-05-07 12:07 | 43.64230 | 16.30439 | 13065 ft | 366 kts | 357° |
| 2026-05-07 12:07 | 43.66794 | 16.30440 | 13779 ft | 370 kts | 357° |
| 2026-05-07 12:07 | 43.69381 | 16.30436 | 14393 ft | 374 kts | 357° |
| 2026-05-07 12:07 | 43.71994 | 16.30428 | 14994 ft | 378 kts | 357° |
| 2026-05-07 12:08 | 43.74638 | 16.30422 | 15600 ft | 382 kts | 357° |
| 2026-05-07 12:08 | 43.77314 | 16.30420 | 16221 ft | 386 kts | 357° |
| 2026-05-07 12:08 | 43.80016 | 16.30419 | 16816 ft | 390 kts | 357° |
| 2026-05-07 12:08 | 43.82745 | 16.30415 | 17385 ft | 395 kts | 356° |
| 2026-05-07 12:09 | 43.85511 | 16.30408 | 17956 ft | 399 kts | 356° |
| 2026-05-07 12:09 | 43.88301 | 16.30401 | 18503 ft | 403 kts | 356° |
| 2026-05-07 12:09 | 43.91122 | 16.30396 | 18981 ft | 407 kts | 356° |
| 2026-05-07 12:09 | 43.93967 | 16.30391 | 19462 ft | 411 kts | 356° |
| 2026-05-07 12:10 | 43.96838 | 16.30386 | 19948 ft | 414 kts | 356° |
| 2026-05-07 12:10 | 43.98752 | 16.30383 | 20249 ft | 417 kts | 356° |
| 2026-05-07 12:10 | 44.01665 | 16.30378 | 20731 ft | 420 kts | 356° |
| 2026-05-07 12:10 | 44.04601 | 16.30375 | 21238 ft | 424 kts | 356° |
| 2026-05-07 12:11 | 44.07562 | 16.30370 | 21686 ft | 427 kts | 356° |
| 2026-05-07 12:11 | 44.10547 | 16.30364 | 22134 ft | 431 kts | 356° |
| 2026-05-07 12:11 | 44.13557 | 16.30357 | 22593 ft | 434 kts | 355° |
| 2026-05-07 12:11 | 44.16592 | 16.30347 | 23038 ft | 438 kts | 355° |
| 2026-05-07 12:12 | 44.19653 | 16.30346 | 23485 ft | 442 kts | 356° |
| 2026-05-07 12:12 | 44.22737 | 16.30355 | 23881 ft | 445 kts | 356° |
| 2026-05-07 12:12 | 44.25843 | 16.30372 | 24213 ft | 448 kts | 356° |
| 2026-05-07 12:12 | 44.28971 | 16.30385 | 24607 ft | 451 kts | 356° |
| 2026-05-07 12:13 | 44.32118 | 16.30396 | 24983 ft | 453 kts | 355° |
| 2026-05-07 12:13 | 44.35280 | 16.30403 | 25340 ft | 456 kts | 355° |
| 2026-05-07 12:13 | 44.38456 | 16.30406 | 25661 ft | 458 kts | 355° |
| 2026-05-07 12:13 | 44.41653 | 16.30412 | 26025 ft | 461 kts | 355° |
| 2026-05-07 12:14 | 44.44868 | 16.30418 | 26407 ft | 464 kts | 355° |
| 2026-05-07 12:14 | 44.48105 | 16.30420 | 26772 ft | 466 kts | 355° |
| 2026-05-07 12:14 | 44.51357 | 16.30422 | 27112 ft | 469 kts | 355° |
| 2026-05-07 12:14 | 44.54630 | 16.30428 | 27418 ft | 471 kts | 355° |
| 2026-05-07 12:15 | 44.57950 | 16.30435 | 27752 ft | 474 kts | 355° |
| 2026-05-07 12:15 | 44.61227 | 16.30440 | 28065 ft | 477 kts | 355° |
| 2026-05-07 12:15 | 44.64634 | 16.30446 | 28418 ft | 479 kts | 355° |
| 2026-05-07 12:15 | 44.67902 | 16.30450 | 28734 ft | 482 kts | 355° |
| 2026-05-07 12:16 | 44.71263 | 16.30456 | 29048 ft | 485 kts | 355° |
| 2026-05-07 12:16 | 44.74640 | 16.30462 | 29386 ft | 488 kts | 355° |
| 2026-05-07 12:16 | 44.78044 | 16.30466 | 29685 ft | 490 kts | 355° |
| 2026-05-07 12:16 | 44.81455 | 16.30467 | 29944 ft | 492 kts | 355° |
| 2026-05-07 12:17 | 44.84897 | 16.30466 | 30166 ft | 495 kts | 355° |
| 2026-05-07 12:17 | 44.88332 | 16.30473 | 30506 ft | 494 kts | 355° |
| 2026-05-07 12:17 | 44.91761 | 16.30483 | 30874 ft | 493 kts | 355° |
| 2026-05-07 12:17 | 44.95189 | 16.30492 | 31235 ft | 491 kts | 355° |
| 2026-05-07 12:18 | 44.98601 | 16.30504 | 31608 ft | 490 kts | 355° |
| 2026-05-07 12:18 | 45.02011 | 16.30506 | 31959 ft | 489 kts | 354° |
| 2026-05-07 12:18 | 45.05410 | 16.30461 | 32315 ft | 488 kts | 354° |
| 2026-05-07 12:18 | 45.08798 | 16.30376 | 32641 ft | 487 kts | 353° |
| 2026-05-07 12:19 | 45.12183 | 16.30269 | 32971 ft | 486 kts | 353° |
| 2026-05-07 12:19 | 45.15602 | 16.30162 | 33324 ft | 486 kts | 353° |
| 2026-05-07 12:19 | 45.18980 | 16.30067 | 33658 ft | 485 kts | 354° |
| 2026-05-07 12:19 | 45.22355 | 16.29986 | 33960 ft | 485 kts | 354° |
| 2026-05-07 12:20 | 45.25725 | 16.29913 | 34030 ft | 484 kts | 354° |
| 2026-05-07 12:20 | 45.32462 | 16.29785 | 34033 ft | 484 kts | 354° |
| 2026-05-07 12:21 | 45.39243 | 16.29645 | 34030 ft | 484 kts | 353° |
| 2026-05-07 12:21 | 45.45974 | 16.29485 | 34030 ft | 484 kts | 353° |
| 2026-05-07 12:22 | 45.48021 | 16.29435 | 34033 ft | 484 kts | 353° |
| 2026-05-07 12:22 | 45.54383 | 16.29283 | 34034 ft | 484 kts | 354° |
| 2026-05-07 12:23 | 45.61120 | 16.29141 | 34039 ft | 484 kts | 354° |
| 2026-05-07 12:23 | 45.67866 | 16.29001 | 34039 ft | 485 kts | 354° |
| 2026-05-07 12:24 | 45.74592 | 16.28853 | 34045 ft | 485 kts | 353° |
| 2026-05-07 12:24 | 45.81348 | 16.28690 | 34042 ft | 485 kts | 354° |
| 2026-05-07 12:25 | 45.88116 | 16.28544 | 34040 ft | 486 kts | 354° |
| 2026-05-07 12:25 | 45.94875 | 16.28393 | 34034 ft | 486 kts | 354° |
| 2026-05-07 12:26 | 46.01653 | 16.28238 | 34018 ft | 487 kts | 353° |
| 2026-05-07 12:26 | 46.08424 | 16.28080 | 34013 ft | 487 kts | 353° |
| 2026-05-07 12:27 | 46.15212 | 16.27934 | 34003 ft | 488 kts | 354° |
| 2026-05-07 12:27 | 46.22012 | 16.27778 | 34009 ft | 489 kts | 353° |
| 2026-05-07 12:28 | 46.28828 | 16.27620 | 33997 ft | 490 kts | 353° |
| 2026-05-07 12:28 | 46.35647 | 16.27456 | 33994 ft | 490 kts | 353° |
| 2026-05-07 12:29 | 46.42315 | 16.26079 | 33987 ft | 482 kts | 341° |
| 2026-05-07 12:29 | 46.48887 | 16.24091 | 33983 ft | 483 kts | 342° |
| 2026-05-07 12:30 | 46.55461 | 16.22108 | 33985 ft | 483 kts | 342° |
| 2026-05-07 12:30 | 46.62055 | 16.20113 | 33987 ft | 484 kts | 342° |
| 2026-05-07 12:31 | 46.68646 | 16.18121 | 33982 ft | 484 kts | 342° |
| 2026-05-07 12:31 | 46.75249 | 16.16126 | 33983 ft | 485 kts | 342° |
| 2026-05-07 12:32 | 46.81853 | 16.14120 | 33983 ft | 485 kts | 342° |
| 2026-05-07 12:32 | 46.88466 | 16.12094 | 33980 ft | 485 kts | 342° |
| 2026-05-07 12:33 | 46.98368 | 16.09058 | 33982 ft | 485 kts | 342° |
| 2026-05-07 12:33 | 47.05083 | 16.07624 | 33976 ft | 491 kts | 350° |
| 2026-05-07 12:34 | 47.11885 | 16.06764 | 33975 ft | 491 kts | 350° |
| 2026-05-07 12:34 | 47.18692 | 16.05890 | 33974 ft | 491 kts | 350° |
| 2026-05-07 12:35 | 47.25489 | 16.05020 | 33978 ft | 491 kts | 350° |
| 2026-05-07 12:35 | 47.32291 | 16.04146 | 33979 ft | 491 kts | 350° |
| 2026-05-07 12:36 | 47.39104 | 16.03264 | 33980 ft | 491 kts | 350° |
| 2026-05-07 12:36 | 47.45903 | 16.02388 | 33984 ft | 491 kts | 350° |
| 2026-05-07 12:37 | 47.52703 | 16.01505 | 33984 ft | 491 kts | 350° |
| 2026-05-07 12:37 | 47.59504 | 16.00612 | 33982 ft | 490 kts | 350° |
| 2026-05-07 12:38 | 47.66313 | 15.99728 | 33983 ft | 491 kts | 350° |
| 2026-05-07 12:38 | 47.73109 | 15.98843 | 33981 ft | 491 kts | 350° |
| 2026-05-07 12:39 | 47.79927 | 15.97936 | 33978 ft | 492 kts | 350° |
| 2026-05-07 12:39 | 47.86742 | 15.97030 | 33976 ft | 492 kts | 350° |
| 2026-05-07 12:40 | 47.93551 | 15.96134 | 33975 ft | 493 kts | 350° |
| 2026-05-07 12:40 | 48.00450 | 15.95241 | 33976 ft | 493 kts | 350° |
| 2026-05-07 12:41 | 48.07287 | 15.94345 | 33973 ft | 493 kts | 351° |
| 2026-05-07 12:41 | 48.14163 | 15.93423 | 33973 ft | 493 kts | 351° |
| 2026-05-07 12:42 | 48.21004 | 15.92509 | 33975 ft | 493 kts | 351° |
| 2026-05-07 12:42 | 48.27835 | 15.91596 | 33971 ft | 493 kts | 351° |
| 2026-05-07 12:43 | 48.33551 | 15.90829 | 33970 ft | 492 kts | 351° |
| 2026-05-07 12:43 | 48.40422 | 15.89909 | 33972 ft | 492 kts | 351° |
| 2026-05-07 12:44 | 48.47292 | 15.88974 | 33972 ft | 492 kts | 351° |
| 2026-05-07 12:44 | 48.54101 | 15.88044 | 33972 ft | 491 kts | 351° |
| 2026-05-07 12:45 | 48.60959 | 15.87120 | 33966 ft | 491 kts | 351° |
| 2026-05-07 12:45 | 48.67767 | 15.86201 | 33959 ft | 491 kts | 351° |
| 2026-05-07 12:46 | 48.74634 | 15.85265 | 33949 ft | 492 kts | 351° |
| 2026-05-07 12:46 | 48.81539 | 15.84312 | 33960 ft | 492 kts | 351° |
| 2026-05-07 12:47 | 48.88276 | 15.82823 | 33962 ft | 486 kts | 340° |
| 2026-05-07 12:47 | 48.94592 | 15.79367 | 33966 ft | 482 kts | 334° |
| 2026-05-07 12:48 | 49.00848 | 15.75704 | 33967 ft | 482 kts | 334° |
| 2026-05-07 12:48 | 49.07118 | 15.72033 | 33971 ft | 482 kts | 334° |
| 2026-05-07 12:49 | 49.13374 | 15.68367 | 33972 ft | 482 kts | 334° |
| 2026-05-07 12:49 | 49.19718 | 15.64631 | 33974 ft | 482 kts | 334° |
| 2026-05-07 12:50 | 49.25978 | 15.60934 | 33972 ft | 482 kts | 334° |
| 2026-05-07 12:50 | 49.32272 | 15.57204 | 33973 ft | 482 kts | 334° |
| 2026-05-07 12:51 | 49.38516 | 15.53492 | 33958 ft | 481 kts | 334° |
| 2026-05-07 12:51 | 49.44766 | 15.49767 | 33958 ft | 481 kts | 334° |
| 2026-05-07 12:52 | 49.51009 | 15.46037 | 33952 ft | 481 kts | 334° |
| 2026-05-07 12:52 | 49.57245 | 15.42308 | 33959 ft | 481 kts | 334° |
| 2026-05-07 12:53 | 49.63529 | 15.38547 | 33957 ft | 481 kts | 334° |
| 2026-05-07 12:53 | 49.69931 | 15.34699 | 33959 ft | 481 kts | 334° |
| 2026-05-07 12:54 | 49.76131 | 15.30943 | 33955 ft | 481 kts | 334° |
| 2026-05-07 12:54 | 49.82365 | 15.27177 | 33953 ft | 481 kts | 334° |
| 2026-05-07 12:55 | 49.88591 | 15.23399 | 33946 ft | 480 kts | 334° |
| 2026-05-07 12:55 | 49.94804 | 15.19612 | 33949 ft | 480 kts | 334° |
| 2026-05-07 12:56 | 50.01014 | 15.15809 | 33944 ft | 479 kts | 334° |
| 2026-05-07 12:56 | 50.07216 | 15.12015 | 33943 ft | 479 kts | 335° |
| 2026-05-07 12:57 | 50.13421 | 15.08215 | 33940 ft | 479 kts | 335° |
| 2026-05-07 12:57 | 50.19615 | 15.04402 | 33945 ft | 478 kts | 334° |
| 2026-05-07 12:58 | 50.25790 | 15.00578 | 33945 ft | 478 kts | 334° |
| 2026-05-07 12:58 | 50.31982 | 14.96730 | 33938 ft | 478 kts | 335° |
| 2026-05-07 12:59 | 50.38149 | 14.92896 | 33928 ft | 478 kts | 335° |
| 2026-05-07 12:59 | 50.44329 | 14.89062 | 33926 ft | 477 kts | 335° |
| 2026-05-07 13:00 | 50.50635 | 14.85733 | 33924 ft | 481 kts | 344° |
| 2026-05-07 13:00 | 50.57159 | 14.83382 | 33922 ft | 481 kts | 344° |
| 2026-05-07 13:01 | 50.62622 | 14.81392 | 33929 ft | 481 kts | 344° |
| 2026-05-07 13:01 | 50.69154 | 14.78996 | 33962 ft | 482 kts | 345° |
| 2026-05-07 13:02 | 50.75687 | 14.76585 | 33938 ft | 482 kts | 344° |
| 2026-05-07 13:02 | 50.82223 | 14.74178 | 33949 ft | 483 kts | 345° |
| 2026-05-07 13:03 | 50.88775 | 14.71775 | 33942 ft | 483 kts | 345° |
| 2026-05-07 13:03 | 50.92050 | 14.70569 | 33564 ft | 484 kts | 344° |
| 2026-05-07 13:03 | 50.95334 | 14.69348 | 33177 ft | 483 kts | 344° |
| 2026-05-07 13:04 | 50.98633 | 14.68067 | 32777 ft | 483 kts | 343° |
| 2026-05-07 13:04 | 51.01855 | 14.66771 | 32381 ft | 484 kts | 343° |
| 2026-05-07 13:04 | 51.05132 | 14.65428 | 31352 ft | 489 kts | 343° |
| 2026-05-07 13:04 | 51.08441 | 14.64060 | 30444 ft | 492 kts | 343° |
| 2026-05-07 13:05 | 51.11735 | 14.62706 | 29837 ft | 487 kts | 343° |
| 2026-05-07 13:05 | 51.15011 | 14.61369 | 29127 ft | 483 kts | 343° |
| 2026-05-07 13:05 | 51.18232 | 14.60065 | 28668 ft | 473 kts | 343° |
| 2026-05-07 13:05 | 51.21392 | 14.58797 | 28196 ft | 464 kts | 343° |
| 2026-05-07 13:06 | 51.24498 | 14.57554 | 27661 ft | 458 kts | 343° |
| 2026-05-07 13:06 | 51.27567 | 14.56318 | 27041 ft | 450 kts | 343° |
| 2026-05-07 13:06 | 51.30578 | 14.55095 | 26349 ft | 444 kts | 343° |
| 2026-05-07 13:06 | 51.33545 | 14.53879 | 25659 ft | 437 kts | 344° |
| 2026-05-07 13:07 | 51.36472 | 14.52673 | 24989 ft | 431 kts | 344° |
| 2026-05-07 13:07 | 51.39403 | 14.51801 | 24306 ft | 426 kts | 353° |
| 2026-05-07 13:07 | 51.42342 | 14.51360 | 23635 ft | 421 kts | 354° |
| 2026-05-07 13:07 | 51.45241 | 14.50922 | 22880 ft | 416 kts | 353° |
| 2026-05-07 13:08 | 51.48103 | 14.50486 | 22156 ft | 411 kts | 353° |
| 2026-05-07 13:08 | 51.50932 | 14.50054 | 21453 ft | 406 kts | 353° |
| 2026-05-07 13:08 | 51.53725 | 14.49622 | 20776 ft | 401 kts | 353° |
| 2026-05-07 13:08 | 51.56489 | 14.49192 | 20103 ft | 397 kts | 353° |
| 2026-05-07 13:09 | 51.59220 | 14.48770 | 19450 ft | 393 kts | 353° |
| 2026-05-07 13:09 | 51.61924 | 14.48353 | 18814 ft | 389 kts | 353° |
| 2026-05-07 13:09 | 51.64608 | 14.47939 | 18185 ft | 386 kts | 353° |
| 2026-05-07 13:09 | 51.67268 | 14.47530 | 17485 ft | 382 kts | 353° |
| 2026-05-07 13:10 | 51.69905 | 14.47119 | 16830 ft | 379 kts | 353° |
| 2026-05-07 13:10 | 51.72513 | 14.46711 | 16196 ft | 375 kts | 353° |
| 2026-05-07 13:10 | 51.75092 | 14.46309 | 15583 ft | 371 kts | 353° |
| 2026-05-07 13:10 | 51.77655 | 14.45913 | 15051 ft | 369 kts | 353° |
| 2026-05-07 13:11 | 51.80206 | 14.45521 | 14675 ft | 366 kts | 353° |
| 2026-05-07 13:11 | 51.82734 | 14.45128 | 14273 ft | 364 kts | 353° |
| 2026-05-07 13:11 | 51.85248 | 14.44733 | 13875 ft | 361 kts | 353° |
| 2026-05-07 13:11 | 51.87742 | 14.44342 | 13430 ft | 359 kts | 353° |
| 2026-05-07 13:12 | 51.90222 | 14.43952 | 12990 ft | 357 kts | 353° |
| 2026-05-07 13:12 | 51.92684 | 14.43568 | 12545 ft | 354 kts | 353° |
| 2026-05-07 13:12 | 51.95125 | 14.43186 | 12102 ft | 351 kts | 353° |
| 2026-05-07 13:12 | 51.97526 | 14.42809 | 11926 ft | 341 kts | 353° |
| 2026-05-07 13:13 | 51.99836 | 14.42281 | 11774 ft | 329 kts | 342° |
| 2026-05-07 13:13 | 52.01887 | 14.40845 | 11621 ft | 316 kts | 325° |
| 2026-05-07 13:13 | 52.03528 | 14.38601 | 11473 ft | 303 kts | 309° |
| 2026-05-07 13:13 | 52.04682 | 14.35824 | 11319 ft | 293 kts | 293° |
| 2026-05-07 13:14 | 52.05329 | 14.32726 | 11168 ft | 288 kts | 278° |
| 2026-05-07 13:14 | 52.05574 | 14.29502 | 11016 ft | 287 kts | 274° |
| 2026-05-07 13:14 | 52.05786 | 14.26282 | 10870 ft | 287 kts | 274° |
| 2026-05-07 13:14 | 52.05999 | 14.23065 | 10723 ft | 286 kts | 275° |
| 2026-05-07 13:15 | 52.06214 | 14.19850 | 10571 ft | 286 kts | 275° |
| 2026-05-07 13:15 | 52.06427 | 14.16637 | 10434 ft | 287 kts | 275° |
| 2026-05-07 13:15 | 52.06649 | 14.13245 | 10293 ft | 312 kts | 275° |
| 2026-05-07 13:15 | 52.06880 | 14.09694 | 10144 ft | 319 kts | 275° |
| 2026-05-07 13:16 | 52.07113 | 14.06103 | 10003 ft | 320 kts | 275° |
| 2026-05-07 13:16 | 52.07346 | 14.02508 | 9847 ft | 321 kts | 275° |
| 2026-05-07 13:16 | 52.07576 | 13.98939 | 9690 ft | 321 kts | 275° |
| 2026-05-07 13:16 | 52.07807 | 13.95349 | 9521 ft | 322 kts | 275° |
| 2026-05-07 13:17 | 52.08038 | 13.91727 | 9372 ft | 322 kts | 275° |
| 2026-05-07 13:17 | 52.08268 | 13.88114 | 9219 ft | 322 kts | 275° |
| 2026-05-07 13:17 | 52.08497 | 13.84500 | 9051 ft | 322 kts | 275° |
| 2026-05-07 13:17 | 52.08725 | 13.80873 | 8897 ft | 322 kts | 275° |
| 2026-05-07 13:18 | 52.08949 | 13.77259 | 8740 ft | 322 kts | 275° |
| 2026-05-07 13:18 | 52.09172 | 13.73684 | 8587 ft | 321 kts | 275° |
| 2026-05-07 13:18 | 52.09395 | 13.70029 | 8422 ft | 321 kts | 275° |
| 2026-05-07 13:18 | 52.09610 | 13.66465 | 8242 ft | 320 kts | 275° |
| 2026-05-07 13:19 | 52.09830 | 13.62822 | 8035 ft | 319 kts | 276° |
| 2026-05-07 13:19 | 52.10072 | 13.59241 | 7833 ft | 318 kts | 277° |
| 2026-05-07 13:19 | 52.10338 | 13.55731 | 7634 ft | 317 kts | 277° |
| 2026-05-07 13:19 | 52.10623 | 13.52146 | 7434 ft | 316 kts | 278° |
| 2026-05-07 13:20 | 52.10904 | 13.48611 | 7237 ft | 314 kts | 277° |
| 2026-05-07 13:20 | 52.11179 | 13.45084 | 7034 ft | 313 kts | 277° |
| 2026-05-07 13:20 | 52.11445 | 13.41616 | 6837 ft | 312 kts | 278° |
| 2026-05-07 13:20 | 52.11709 | 13.38077 | 6642 ft | 311 kts | 278° |
| 2026-05-07 13:21 | 52.12206 | 13.34730 | 6442 ft | 307 kts | 295° |
| 2026-05-07 13:21 | 52.13329 | 13.31801 | 6237 ft | 305 kts | 308° |
| 2026-05-07 13:21 | 52.14604 | 13.29059 | 6037 ft | 304 kts | 308° |
| 2026-05-07 13:21 | 52.15875 | 13.26322 | 5817 ft | 302 kts | 308° |
| 2026-05-07 13:22 | 52.17158 | 13.23554 | 5597 ft | 302 kts | 308° |
| 2026-05-07 13:22 | 52.18405 | 13.20925 | 5401 ft | 291 kts | 313° |
| 2026-05-07 13:22 | 52.19943 | 13.18951 | 5193 ft | 273 kts | 334° |
| 2026-05-07 13:22 | 52.21633 | 13.17805 | 4991 ft | 254 kts | 340° |
| 2026-05-07 13:23 | 52.23233 | 13.16785 | 4785 ft | 239 kts | 340° |
| 2026-05-07 13:23 | 52.24740 | 13.15830 | 4576 ft | 226 kts | 343° |
| 2026-05-07 13:23 | 52.26220 | 13.15685 | 4360 ft | 209 kts | 20° |
| 2026-05-07 13:23 | 52.27345 | 13.17037 | 4146 ft | 202 kts | 58° |
| 2026-05-07 13:24 | 52.27916 | 13.19118 | 3865 ft | 201 kts | 68° |
| 2026-05-07 13:24 | 52.28415 | 13.21244 | 3582 ft | 199 kts | 68° |
| 2026-05-07 13:24 | 52.28911 | 13.23327 | 3306 ft | 194 kts | 67° |
| 2026-05-07 13:24 | 52.29397 | 13.25350 | 3057 ft | 188 kts | 67° |
| 2026-05-07 13:25 | 52.29860 | 13.27278 | 2798 ft | 175 kts | 68° |
| 2026-05-07 13:25 | 52.30290 | 13.29067 | 2557 ft | 164 kts | 67° |
| 2026-05-07 13:25 | 52.30695 | 13.30755 | 2330 ft | 158 kts | 68° |
| 2026-05-07 13:25 | 52.31091 | 13.32407 | 2134 ft | 155 kts | 67° |
| 2026-05-07 13:26 | 52.31480 | 13.34027 | 1907 ft | 150 kts | 67° |
| 2026-05-07 13:26 | 52.31849 | 13.35568 | 1713 ft | 143 kts | 67° |
| 2026-05-07 13:26 | 52.32208 | 13.37062 | 1518 ft | 140 kts | 67° |
| 2026-05-07 13:26 | 52.32564 | 13.38554 | 1319 ft | 139 kts | 68° |
| 2026-05-07 13:27 | 52.32915 | 13.40025 | 1146 ft | 139 kts | 67° |
| 2026-05-07 13:27 | 52.33262 | 13.41485 | 934 ft | 137 kts | 68° |
| 2026-05-07 13:27 | 52.33609 | 13.42935 | 735 ft | 138 kts | 67° |
| 2026-05-07 13:27 | 52.33957 | 13.44382 | 541 ft | 136 kts | 68° |
| 2026-05-07 13:28 | 52.34296 | 13.45813 | 361 ft | 135 kts | 68° |
| 2026-05-07 13:28 | 52.34631 | 13.47228 | 182 ft | 135 kts | 68° |
| 2026-05-07 13:28 | 52.34932 | 13.48486 | 159 ft | 95 kts | 69° |
| 2026-05-07 13:28 | 52.35113 | 13.49244 | 158 ft | 46 kts | 69° |
| 2026-05-07 13:29 | 52.35197 | 13.49597 | 158 ft | 31 kts | 69° |
| 2026-05-07 13:29 | 52.35305 | 13.49892 | 154 ft | 31 kts | 47° |
| 2026-05-07 13:29 | 52.35460 | 13.50107 | 150 ft | 22 kts | 38° |
| 2026-05-07 13:29 | 52.35572 | 13.50263 | 149 ft | 18 kts | 36° |
| 2026-05-07 13:30 | 52.35633 | 13.50440 | 148 ft | 18 kts | 69° |
| 2026-05-07 13:30 | 52.35679 | 13.50635 | 148 ft | 19 kts | 68° |
| 2026-05-07 13:30 | 52.35716 | 13.50795 | 150 ft | 11 kts | 66° |
| 2026-05-07 13:30 | 52.35786 | 13.50816 | 150 ft | 12 kts | 339° |
| 2026-05-07 13:31 | 52.35849 | 13.50777 | 152 ft | 8 kts | 339° |
| 2026-05-07 13:31 | 52.35908 | 13.50787 | 153 ft | 12 kts | 48° |
| 2026-05-07 13:31 | 52.35939 | 13.50917 | 155 ft | 12 kts | 69° |
| 2026-05-07 13:31 | 52.35972 | 13.51053 | 155 ft | 15 kts | 68° |
| 2026-05-07 13:32 | 52.36012 | 13.51222 | 155 ft | 17 kts | 69° |
| 2026-05-07 13:32 | 52.36047 | 13.51369 | 155 ft | 8 kts | 69° |
| 2026-05-07 13:32 | 52.36087 | 13.51391 | 155 ft | 7 kts | 339° |
| 2026-05-07 13:32 | 52.36130 | 13.51362 | 155 ft | 5 kts | 339° |
| 2026-05-07 13:33 | 52.36139 | 13.51357 | 155 ft | 0 kts | 339° |